sensor_id;sensor_type;location;lat;lon;timestamp;pressure;altitude;pressure_sealevel;temperature;humidity
52653;BME280;39353;42.864;12.014;2024-02-21T00:00:53;98226.80;;;20.42;49.58
52653;BME280;39353;42.864;12.014;2024-02-21T00:03:44;98224.95;;;20.41;49.54
52653;BME280;39353;42.864;12.014;2024-02-21T00:06:17;98225.70;;;20.40;49.66
52653;BME280;39353;42.864;12.014;2024-02-21T00:08:49;98222.55;;;20.37;49.64
52653;BME280;39353;42.864;12.014;2024-02-21T00:11:21;98223.17;;;20.34;49.61
52653;BME280;39353;42.864;12.014;2024-02-21T00:13:54;98223.08;;;20.32;49.67
52653;BME280;39353;42.864;12.014;2024-02-21T00:16:25;98230.73;;;20.30;49.66
52653;BME280;39353;42.864;12.014;2024-02-21T00:18:56;98235.64;;;20.28;49.66
52653;BME280;39353;42.864;12.014;2024-02-21T00:21:28;98232.54;;;20.27;49.73
52653;BME280;39353;42.864;12.014;2024-02-21T00:23:59;98234.59;;;20.26;49.65
52653;BME280;39353;42.864;12.014;2024-02-21T00:26:29;98236.39;;;20.23;49.78
52653;BME280;39353;42.864;12.014;2024-02-21T00:29:00;98236.40;;;20.23;49.75
52653;BME280;39353;42.864;12.014;2024-02-21T00:31:31;98234.29;;;20.21;49.62
52653;BME280;39353;42.864;12.014;2024-02-21T00:34:03;98229.09;;;20.19;49.86
52653;BME280;39353;42.864;12.014;2024-02-21T00:36:35;98229.27;;;20.18;49.77
52653;BME280;39353;42.864;12.014;2024-02-21T00:39:07;98226.77;;;20.18;49.83
52653;BME280;39353;42.864;12.014;2024-02-21T00:41:39;98235.05;;;20.17;49.91
52653;BME280;39353;42.864;12.014;2024-02-21T00:44:10;98238.82;;;20.16;49.78
52653;BME280;39353;42.864;12.014;2024-02-21T00:46:42;98238.23;;;20.15;49.87
52653;BME280;39353;42.864;12.014;2024-02-21T00:49:16;98243.73;;;20.15;49.90
52653;BME280;39353;42.864;12.014;2024-02-21T00:51:49;98236.64;;;20.13;49.82
52653;BME280;39353;42.864;12.014;2024-02-21T00:54:21;98237.91;;;20.13;49.69
52653;BME280;39353;42.864;12.014;2024-02-21T00:56:53;98240.34;;;20.11;49.91
52653;BME280;39353;42.864;12.014;2024-02-21T00:59:25;98240.95;;;20.09;49.78
52653;BME280;39353;42.864;12.014;2024-02-21T01:01:56;98234.73;;;20.10;49.73
52653;BME280;39353;42.864;12.014;2024-02-21T01:04:29;98235.94;;;20.07;49.85
52653;BME280;39353;42.864;12.014;2024-02-21T01:07:01;98235.18;;;20.06;49.91
52653;BME280;39353;42.864;12.014;2024-02-21T01:09:33;98235.06;;;20.06;49.77
52653;BME280;39353;42.864;12.014;2024-02-21T01:12:05;98234.84;;;20.04;49.99
52653;BME280;39353;42.864;12.014;2024-02-21T01:14:36;98233.20;;;20.03;49.92
52653;BME280;39353;42.864;12.014;2024-02-21T01:17:09;98230.34;;;20.01;49.89
52653;BME280;39353;42.864;12.014;2024-02-21T01:19:41;98237.10;;;20.00;49.86
52653;BME280;39353;42.864;12.014;2024-02-21T01:22:13;98235.92;;;19.99;50.02
52653;BME280;39353;42.864;12.014;2024-02-21T01:24:46;98240.58;;;20.00;49.92
52653;BME280;39353;42.864;12.014;2024-02-21T01:27:17;98242.20;;;19.97;50.03
52653;BME280;39353;42.864;12.014;2024-02-21T01:29:49;98245.99;;;19.96;50.04
52653;BME280;39353;42.864;12.014;2024-02-21T01:32:22;98248.64;;;19.95;49.98
52653;BME280;39353;42.864;12.014;2024-02-21T01:34:54;98250.73;;;19.94;49.94
52653;BME280;39353;42.864;12.014;2024-02-21T01:37:26;98253.73;;;19.93;50.07
52653;BME280;39353;42.864;12.014;2024-02-21T01:39:57;98255.48;;;19.92;50.19
52653;BME280;39353;42.864;12.014;2024-02-21T01:42:29;98257.04;;;19.92;50.17
52653;BME280;39353;42.864;12.014;2024-02-21T01:45:00;98255.98;;;19.90;50.15
52653;BME280;39353;42.864;12.014;2024-02-21T01:47:32;98254.63;;;19.89;49.98
52653;BME280;39353;42.864;12.014;2024-02-21T01:50:06;98254.04;;;19.88;50.18
52653;BME280;39353;42.864;12.014;2024-02-21T01:52:38;98252.89;;;19.87;49.94
52653;BME280;39353;42.864;12.014;2024-02-21T01:55:11;98248.14;;;19.86;50.06
52653;BME280;39353;42.864;12.014;2024-02-21T01:57:45;98242.31;;;19.86;50.05
52653;BME280;39353;42.864;12.014;2024-02-21T02:00:18;98242.14;;;19.85;50.02
52653;BME280;39353;42.864;12.014;2024-02-21T02:02:50;98239.29;;;19.84;50.08
52653;BME280;39353;42.864;12.014;2024-02-21T02:05:22;98237.27;;;19.83;49.94
52653;BME280;39353;42.864;12.014;2024-02-21T02:07:53;98229.77;;;19.81;50.04
52653;BME280;39353;42.864;12.014;2024-02-21T02:10:24;98233.65;;;19.80;49.91
52653;BME280;39353;42.864;12.014;2024-02-21T02:12:56;98236.88;;;19.79;49.84
52653;BME280;39353;42.864;12.014;2024-02-21T02:15:37;98234.21;;;19.77;49.90
52653;BME280;39353;42.864;12.014;2024-02-21T02:18:08;98236.55;;;19.75;49.97
52653;BME280;39353;42.864;12.014;2024-02-21T02:20:39;98239.10;;;19.75;49.96
52653;BME280;39353;42.864;12.014;2024-02-21T02:25:47;98242.80;;;19.75;50.08
52653;BME280;39353;42.864;12.014;2024-02-21T02:28:19;98242.75;;;19.75;50.04
52653;BME280;39353;42.864;12.014;2024-02-21T02:30:50;98240.95;;;19.74;49.99
52653;BME280;39353;42.864;12.014;2024-02-21T02:33:21;98240.17;;;19.73;50.06
52653;BME280;39353;42.864;12.014;2024-02-21T02:35:53;98239.02;;;19.72;49.98
52653;BME280;39353;42.864;12.014;2024-02-21T02:38:24;98239.39;;;19.72;50.01
52653;BME280;39353;42.864;12.014;2024-02-21T02:40:55;98237.27;;;19.72;50.17
52653;BME280;39353;42.864;12.014;2024-02-21T02:43:26;98236.09;;;19.71;50.12
52653;BME280;39353;42.864;12.014;2024-02-21T02:45:58;98233.35;;;19.70;50.08
52653;BME280;39353;42.864;12.014;2024-02-21T02:48:31;98232.20;;;19.69;50.13
52653;BME280;39353;42.864;12.014;2024-02-21T02:51:02;98234.64;;;19.68;50.09
52653;BME280;39353;42.864;12.014;2024-02-21T02:53:33;98229.99;;;19.68;50.04
52653;BME280;39353;42.864;12.014;2024-02-21T02:56:05;98229.65;;;19.68;49.96
52653;BME280;39353;42.864;12.014;2024-02-21T02:58:38;98230.90;;;19.68;50.04
52653;BME280;39353;42.864;12.014;2024-02-21T03:01:09;98229.81;;;19.66;49.96
52653;BME280;39353;42.864;12.014;2024-02-21T03:03:41;98229.34;;;19.64;50.09
52653;BME280;39353;42.864;12.014;2024-02-21T03:06:13;98233.52;;;19.64;50.00
52653;BME280;39353;42.864;12.014;2024-02-21T03:08:45;98232.10;;;19.64;50.00
52653;BME280;39353;42.864;12.014;2024-02-21T03:11:16;98230.95;;;19.63;49.98
52653;BME280;39353;42.864;12.014;2024-02-21T03:13:48;98229.87;;;19.63;50.02
52653;BME280;39353;42.864;12.014;2024-02-21T03:16:20;98225.73;;;19.63;50.10
52653;BME280;39353;42.864;12.014;2024-02-21T03:18:51;98228.40;;;19.63;49.96
52653;BME280;39353;42.864;12.014;2024-02-21T03:21:23;98226.64;;;19.61;50.02
52653;BME280;39353;42.864;12.014;2024-02-21T03:23:53;98226.88;;;19.61;50.11
52653;BME280;39353;42.864;12.014;2024-02-21T03:26:25;98230.06;;;19.61;50.12
52653;BME280;39353;42.864;12.014;2024-02-21T03:28:56;98227.72;;;19.60;50.15
52653;BME280;39353;42.864;12.014;2024-02-21T03:31:27;98228.51;;;19.58;49.91
52653;BME280;39353;42.864;12.014;2024-02-21T03:33:58;98228.70;;;19.58;50.04
52653;BME280;39353;42.864;12.014;2024-02-21T03:36:29;98221.66;;;19.56;50.09
52653;BME280;39353;42.864;12.014;2024-02-21T03:39:00;98226.34;;;19.55;50.11
52653;BME280;39353;42.864;12.014;2024-02-21T03:41:32;98228.15;;;19.55;50.10
52653;BME280;39353;42.864;12.014;2024-02-21T03:44:03;98226.98;;;19.55;50.05
52653;BME280;39353;42.864;12.014;2024-02-21T03:46:35;98225.09;;;19.54;49.99
52653;BME280;39353;42.864;12.014;2024-02-21T03:49:06;98227.83;;;19.52;50.05
52653;BME280;39353;42.864;12.014;2024-02-21T03:51:38;98232.42;;;19.52;49.96
52653;BME280;39353;42.864;12.014;2024-02-21T03:54:09;98225.48;;;19.52;50.03
52653;BME280;39353;42.864;12.014;2024-02-21T03:56:40;98225.11;;;19.52;50.02
52653;BME280;39353;42.864;12.014;2024-02-21T03:59:11;98225.44;;;19.51;50.21
52653;BME280;39353;42.864;12.014;2024-02-21T04:01:43;98225.80;;;19.49;49.93
52653;BME280;39353;42.864;12.014;2024-02-21T04:04:15;98229.48;;;19.49;49.86
52653;BME280;39353;42.864;12.014;2024-02-21T04:06:50;98232.37;;;19.49;49.89
52653;BME280;39353;42.864;12.014;2024-02-21T04:09:22;98233.80;;;19.49;50.09
52653;BME280;39353;42.864;12.014;2024-02-21T04:11:54;98232.84;;;19.50;50.07
52653;BME280;39353;42.864;12.014;2024-02-21T04:14:25;98227.89;;;19.48;50.09
52653;BME280;39353;42.864;12.014;2024-02-21T04:16:56;98231.61;;;19.48;50.08
52653;BME280;39353;42.864;12.014;2024-02-21T04:19:27;98228.59;;;19.47;50.14
52653;BME280;39353;42.864;12.014;2024-02-21T04:22:00;98227.81;;;19.46;50.15
52653;BME280;39353;42.864;12.014;2024-02-21T04:24:31;98225.74;;;19.47;50.05
52653;BME280;39353;42.864;12.014;2024-02-21T04:27:02;98228.22;;;19.46;50.03
52653;BME280;39353;42.864;12.014;2024-02-21T04:29:34;98226.13;;;19.46;50.09
52653;BME280;39353;42.864;12.014;2024-02-21T04:32:06;98229.34;;;19.44;49.84
52653;BME280;39353;42.864;12.014;2024-02-21T04:34:38;98231.98;;;19.44;49.92
52653;BME280;39353;42.864;12.014;2024-02-21T04:37:11;98236.41;;;19.44;50.03
52653;BME280;39353;42.864;12.014;2024-02-21T04:39:43;98235.65;;;19.43;49.86
52653;BME280;39353;42.864;12.014;2024-02-21T04:42:16;98236.28;;;19.43;50.03
52653;BME280;39353;42.864;12.014;2024-02-21T04:44:47;98241.90;;;19.43;50.08
52653;BME280;39353;42.864;12.014;2024-02-21T04:47:20;98243.31;;;19.43;50.20
52653;BME280;39353;42.864;12.014;2024-02-21T04:49:53;98245.32;;;19.43;50.16
52653;BME280;39353;42.864;12.014;2024-02-21T04:52:25;98248.88;;;19.42;50.19
52653;BME280;39353;42.864;12.014;2024-02-21T04:54:57;98246.54;;;19.42;50.13
52653;BME280;39353;42.864;12.014;2024-02-21T04:57:29;98244.06;;;19.41;50.09
52653;BME280;39353;42.864;12.014;2024-02-21T05:00:00;98249.13;;;19.42;50.19
52653;BME280;39353;42.864;12.014;2024-02-21T05:02:33;98245.90;;;19.41;50.11
52653;BME280;39353;42.864;12.014;2024-02-21T05:05:06;98241.38;;;19.41;50.16
52653;BME280;39353;42.864;12.014;2024-02-21T05:07:38;98243.84;;;19.40;50.08
52653;BME280;39353;42.864;12.014;2024-02-21T05:10:10;98241.40;;;19.40;50.13
52653;BME280;39353;42.864;12.014;2024-02-21T05:12:42;98245.13;;;19.39;50.19
52653;BME280;39353;42.864;12.014;2024-02-21T05:15:13;98240.98;;;19.39;50.17
52653;BME280;39353;42.864;12.014;2024-02-21T05:17:44;98245.95;;;19.38;50.25
52653;BME280;39353;42.864;12.014;2024-02-21T05:20:16;98242.43;;;19.37;50.23
52653;BME280;39353;42.864;12.014;2024-02-21T05:22:47;98239.49;;;19.38;50.10
52653;BME280;39353;42.864;12.014;2024-02-21T05:25:18;98238.19;;;19.36;50.04
52653;BME280;39353;42.864;12.014;2024-02-21T05:27:52;98242.38;;;19.36;50.23
52653;BME280;39353;42.864;12.014;2024-02-21T05:30:25;98242.55;;;19.36;50.20
52653;BME280;39353;42.864;12.014;2024-02-21T05:32:58;98246.23;;;19.34;50.00
52653;BME280;39353;42.864;12.014;2024-02-21T05:35:30;98247.77;;;19.32;50.21
52653;BME280;39353;42.864;12.014;2024-02-21T05:38:02;98248.92;;;19.33;50.15
52653;BME280;39353;42.864;12.014;2024-02-21T05:40:36;98249.35;;;19.33;50.24
52653;BME280;39353;42.864;12.014;2024-02-21T05:43:08;98243.87;;;19.33;50.06
52653;BME280;39353;42.864;12.014;2024-02-21T05:45:39;98245.05;;;19.34;50.01
52653;BME280;39353;42.864;12.014;2024-02-21T05:48:11;98239.23;;;19.34;50.22
52653;BME280;39353;42.864;12.014;2024-02-21T05:50:42;98245.21;;;19.32;50.17
52653;BME280;39353;42.864;12.014;2024-02-21T05:53:13;98244.62;;;19.31;50.16
52653;BME280;39353;42.864;12.014;2024-02-21T05:55:45;98247.32;;;19.30;50.26
52653;BME280;39353;42.864;12.014;2024-02-21T05:58:17;98255.27;;;19.30;50.26
52653;BME280;39353;42.864;12.014;2024-02-21T06:00:48;98261.25;;;19.29;50.31
52653;BME280;39353;42.864;12.014;2024-02-21T06:03:19;98264.55;;;19.29;50.20
52653;BME280;39353;42.864;12.014;2024-02-21T06:05:50;98266.39;;;19.29;50.23
52653;BME280;39353;42.864;12.014;2024-02-21T06:08:22;98264.30;;;19.28;50.18
52653;BME280;39353;42.864;12.014;2024-02-21T06:10:54;98270.12;;;19.28;50.31
52653;BME280;39353;42.864;12.014;2024-02-21T06:13:26;98271.79;;;19.28;50.25
52653;BME280;39353;42.864;12.014;2024-02-21T06:15:57;98280.61;;;19.27;50.27
52653;BME280;39353;42.864;12.014;2024-02-21T06:18:29;98282.08;;;19.26;50.41
52653;BME280;39353;42.864;12.014;2024-02-21T06:21:01;98284.91;;;19.26;50.27
52653;BME280;39353;42.864;12.014;2024-02-21T06:23:32;98287.30;;;19.25;50.48
52653;BME280;39353;42.864;12.014;2024-02-21T06:26:04;98289.60;;;19.26;50.25
52653;BME280;39353;42.864;12.014;2024-02-21T06:28:35;98290.95;;;19.25;50.34
52653;BME280;39353;42.864;12.014;2024-02-21T06:31:07;98289.05;;;19.25;50.41
52653;BME280;39353;42.864;12.014;2024-02-21T06:33:38;98292.82;;;19.25;50.40
52653;BME280;39353;42.864;12.014;2024-02-21T06:36:10;98300.84;;;19.24;50.52
52653;BME280;39353;42.864;12.014;2024-02-21T06:38:41;98301.39;;;19.24;50.46
52653;BME280;39353;42.864;12.014;2024-02-21T06:41:17;98306.60;;;19.26;50.33
52653;BME280;39353;42.864;12.014;2024-02-21T06:43:49;98305.41;;;19.26;50.40
52653;BME280;39353;42.864;12.014;2024-02-21T06:46:29;98301.69;;;19.25;50.46
52653;BME280;39353;42.864;12.014;2024-02-21T06:49:02;98301.95;;;19.26;49.73
52653;BME280;39353;42.864;12.014;2024-02-21T06:51:37;98304.09;;;19.26;49.48
52653;BME280;39353;42.864;12.014;2024-02-21T06:54:08;98303.31;;;19.28;49.85
52653;BME280;39353;42.864;12.014;2024-02-21T06:56:40;98305.80;;;19.30;49.82
52653;BME280;39353;42.864;12.014;2024-02-21T06:59:12;98303.98;;;19.33;49.88
52653;BME280;39353;42.864;12.014;2024-02-21T07:01:47;98305.73;;;19.34;49.94
52653;BME280;39353;42.864;12.014;2024-02-21T07:04:19;98304.30;;;19.36;50.04
52653;BME280;39353;42.864;12.014;2024-02-21T07:06:50;98308.21;;;19.38;49.87
52653;BME280;39353;42.864;12.014;2024-02-21T07:09:21;98311.15;;;19.39;49.19
52653;BME280;39353;42.864;12.014;2024-02-21T07:11:52;98313.21;;;19.40;49.50
52653;BME280;39353;42.864;12.014;2024-02-21T07:14:23;98313.80;;;19.41;49.62
52653;BME280;39353;42.864;12.014;2024-02-21T07:16:54;98318.30;;;19.41;49.83
52653;BME280;39353;42.864;12.014;2024-02-21T07:19:26;98322.37;;;19.43;49.71
52653;BME280;39353;42.864;12.014;2024-02-21T07:21:57;98323.80;;;19.44;49.49
52653;BME280;39353;42.864;12.014;2024-02-21T07:24:28;98325.23;;;19.45;49.52
52653;BME280;39353;42.864;12.014;2024-02-21T07:26:58;98326.11;;;19.45;49.56
52653;BME280;39353;42.864;12.014;2024-02-21T07:29:33;98332.52;;;19.46;49.64
52653;BME280;39353;42.864;12.014;2024-02-21T07:32:06;98337.67;;;19.46;49.43
52653;BME280;39353;42.864;12.014;2024-02-21T07:34:36;98333.11;;;19.42;47.33
52653;BME280;39353;42.864;12.014;2024-02-21T07:37:08;98331.14;;;19.37;47.73
52653;BME280;39353;42.864;12.014;2024-02-21T07:39:38;98332.68;;;19.37;48.38
52653;BME280;39353;42.864;12.014;2024-02-21T07:42:10;98328.23;;;19.23;44.69
52653;BME280;39353;42.864;12.014;2024-02-21T07:44:42;98325.25;;;19.19;46.12
52653;BME280;39353;42.864;12.014;2024-02-21T07:47:15;98323.73;;;19.06;42.65
52653;BME280;39353;42.864;12.014;2024-02-21T07:49:48;98323.52;;;18.66;39.00
52653;BME280;39353;42.864;12.014;2024-02-21T07:52:20;98328.08;;;18.52;40.33
52653;BME280;39353;42.864;12.014;2024-02-21T07:54:51;98330.95;;;18.62;42.83
52653;BME280;39353;42.864;12.014;2024-02-21T07:57:23;98330.54;;;18.74;44.04
52653;BME280;39353;42.864;12.014;2024-02-21T07:59:54;98334.86;;;18.84;44.86
52653;BME280;39353;42.864;12.014;2024-02-21T08:02:26;98330.50;;;18.93;45.61
52653;BME280;39353;42.864;12.014;2024-02-21T08:04:57;98334.36;;;19.00;45.90
52653;BME280;39353;42.864;12.014;2024-02-21T08:07:28;98329.06;;;19.06;46.32
52653;BME280;39353;42.864;12.014;2024-02-21T08:10:00;98328.16;;;19.03;45.18
52653;BME280;39353;42.864;12.014;2024-02-21T08:12:31;98328.79;;;19.03;46.09
52653;BME280;39353;42.864;12.014;2024-02-21T08:15:02;98330.83;;;19.07;46.17
52653;BME280;39353;42.864;12.014;2024-02-21T08:17:34;98334.40;;;18.97;44.70
52653;BME280;39353;42.864;12.014;2024-02-21T08:20:06;98337.88;;;18.97;45.14
52653;BME280;39353;42.864;12.014;2024-02-21T08:22:39;98343.57;;;18.81;40.65
52653;BME280;39353;42.864;12.014;2024-02-21T08:25:10;98351.04;;;18.66;42.48
52653;BME280;39353;42.864;12.014;2024-02-21T08:27:41;98352.05;;;18.71;44.12
52653;BME280;39353;42.864;12.014;2024-02-21T08:30:14;98351.47;;;18.79;44.72
52653;BME280;39353;42.864;12.014;2024-02-21T08:32:44;98347.91;;;18.87;45.27
52653;BME280;39353;42.864;12.014;2024-02-21T08:35:16;98350.64;;;18.93;45.35
52653;BME280;39353;42.864;12.014;2024-02-21T08:37:48;98348.97;;;18.98;45.78
52653;BME280;39353;42.864;12.014;2024-02-21T08:40:19;98346.48;;;19.03;46.26
52653;BME280;39353;42.864;12.014;2024-02-21T08:42:51;98345.22;;;19.06;46.09
52653;BME280;39353;42.864;12.014;2024-02-21T08:45:23;98344.91;;;19.08;46.26
52653;BME280;39353;42.864;12.014;2024-02-21T08:47:54;98347.91;;;19.12;46.20
52653;BME280;39353;42.864;12.014;2024-02-21T08:50:25;98351.54;;;19.18;46.55
52653;BME280;39353;42.864;12.014;2024-02-21T08:52:55;98347.05;;;19.23;46.36
52653;BME280;39353;42.864;12.014;2024-02-21T08:55:27;98350.41;;;19.28;46.85
52653;BME280;39353;42.864;12.014;2024-02-21T08:57:58;98347.83;;;19.34;47.10
52653;BME280;39353;42.864;12.014;2024-02-21T09:00:29;98346.95;;;19.38;47.28
52653;BME280;39353;42.864;12.014;2024-02-21T09:03:00;98343.80;;;19.43;47.40
52653;BME280;39353;42.864;12.014;2024-02-21T09:05:31;98338.60;;;19.45;47.59
52653;BME280;39353;42.864;12.014;2024-02-21T09:08:05;98344.05;;;19.48;47.67
52653;BME280;39353;42.864;12.014;2024-02-21T09:10:36;98340.89;;;19.51;47.64
52653;BME280;39353;42.864;12.014;2024-02-21T09:13:07;98339.23;;;19.54;47.82
52653;BME280;39353;42.864;12.014;2024-02-21T09:15:38;98337.33;;;19.56;47.92
52653;BME280;39353;42.864;12.014;2024-02-21T09:18:09;98343.29;;;19.57;47.91
52653;BME280;39353;42.864;12.014;2024-02-21T09:20:40;98345.90;;;19.60;48.12
52653;BME280;39353;42.864;12.014;2024-02-21T09:23:11;98344.05;;;19.59;48.22
52653;BME280;39353;42.864;12.014;2024-02-21T09:25:43;98344.82;;;19.60;48.21
52653;BME280;39353;42.864;12.014;2024-02-21T09:28:16;98343.03;;;19.57;48.31
52653;BME280;39353;42.864;12.014;2024-02-21T09:30:47;98343.91;;;19.57;48.43
52653;BME280;39353;42.864;12.014;2024-02-21T09:33:19;98343.09;;;19.58;48.20
52653;BME280;39353;42.864;12.014;2024-02-21T09:35:49;98344.40;;;19.56;47.86
52653;BME280;39353;42.864;12.014;2024-02-21T09:38:21;98345.52;;;19.54;47.40
52653;BME280;39353;42.864;12.014;2024-02-21T09:41:00;98348.08;;;19.54;47.56
52653;BME280;39353;42.864;12.014;2024-02-21T09:43:36;98346.00;;;19.52;46.47
52653;BME280;39353;42.864;12.014;2024-02-21T09:46:09;98346.84;;;19.45;45.64
52653;BME280;39353;42.864;12.014;2024-02-21T09:48:58;98339.89;;;19.45;46.33
52653;BME280;39353;42.864;12.014;2024-02-21T09:51:36;98338.27;;;19.47;46.65
52653;BME280;39353;42.864;12.014;2024-02-21T09:54:09;98344.21;;;19.48;46.85
52653;BME280;39353;42.864;12.014;2024-02-21T09:56:40;98343.70;;;19.53;46.91
52653;BME280;39353;42.864;12.014;2024-02-21T09:59:11;98347.70;;;19.58;47.03
52653;BME280;39353;42.864;12.014;2024-02-21T10:01:43;98342.41;;;19.63;47.25
52653;BME280;39353;42.864;12.014;2024-02-21T10:04:16;98341.59;;;19.67;47.53
52653;BME280;39353;42.864;12.014;2024-02-21T10:06:49;98345.90;;;19.65;47.47
52653;BME280;39353;42.864;12.014;2024-02-21T10:09:24;98348.90;;;19.68;47.70
52653;BME280;39353;42.864;12.014;2024-02-21T10:12:09;98345.77;;;19.68;47.61
52653;BME280;39353;42.864;12.014;2024-02-21T10:14:40;98347.39;;;19.67;47.60
52653;BME280;39353;42.864;12.014;2024-02-21T10:17:17;98346.45;;;19.65;47.39
52653;BME280;39353;42.864;12.014;2024-02-21T10:19:49;98344.89;;;19.63;47.35
52653;BME280;39353;42.864;12.014;2024-02-21T10:22:21;98339.01;;;19.62;47.31
52653;BME280;39353;42.864;12.014;2024-02-21T10:24:53;98336.99;;;19.61;47.27
52653;BME280;39353;42.864;12.014;2024-02-21T10:27:24;98342.69;;;19.66;47.21
52653;BME280;39353;42.864;12.014;2024-02-21T10:29:56;98340.71;;;19.77;47.07
52653;BME280;39353;42.864;12.014;2024-02-21T10:32:28;98340.54;;;19.76;45.10
52653;BME280;39353;42.864;12.014;2024-02-21T10:35:05;98331.39;;;19.58;40.86
52653;BME280;39353;42.864;12.014;2024-02-21T10:37:36;98330.54;;;19.51;43.23
52653;BME280;39353;42.864;12.014;2024-02-21T10:40:10;98327.39;;;19.49;44.53
52653;BME280;39353;42.864;12.014;2024-02-21T10:42:43;98327.65;;;19.51;44.70
52653;BME280;39353;42.864;12.014;2024-02-21T10:45:18;98324.82;;;19.51;45.17
52653;BME280;39353;42.864;12.014;2024-02-21T10:47:59;98329.21;;;19.57;45.26
52653;BME280;39353;42.864;12.014;2024-02-21T10:50:35;98326.27;;;19.58;45.45
52653;BME280;39353;42.864;12.014;2024-02-21T10:53:19;98319.81;;;19.59;45.76
52653;BME280;39353;42.864;12.014;2024-02-21T10:56:01;98311.93;;;19.59;45.91
52653;BME280;39353;42.864;12.014;2024-02-21T10:58:39;98306.16;;;19.60;46.17
52653;BME280;39353;42.864;12.014;2024-02-21T11:01:15;98302.20;;;19.62;46.23
52653;BME280;39353;42.864;12.014;2024-02-21T11:03:49;98300.61;;;19.63;46.48
52653;BME280;39353;42.864;12.014;2024-02-21T11:06:23;98292.29;;;19.65;46.38
52653;BME280;39353;42.864;12.014;2024-02-21T11:09:06;98285.85;;;19.67;46.62
52653;BME280;39353;42.864;12.014;2024-02-21T11:11:39;98276.64;;;19.68;46.58
52653;BME280;39353;42.864;12.014;2024-02-21T11:14:18;98275.38;;;19.66;46.70
52653;BME280;39353;42.864;12.014;2024-02-21T11:16:50;98273.88;;;19.67;46.61
52653;BME280;39353;42.864;12.014;2024-02-21T11:19:25;98270.35;;;19.66;46.67
52653;BME280;39353;42.864;12.014;2024-02-21T11:21:57;98272.69;;;19.66;46.64
52653;BME280;39353;42.864;12.014;2024-02-21T11:24:29;98263.11;;;19.66;46.74
52653;BME280;39353;42.864;12.014;2024-02-21T11:27:13;98255.80;;;19.64;46.72
52653;BME280;39353;42.864;12.014;2024-02-21T11:29:46;98254.64;;;19.65;46.71
52653;BME280;39353;42.864;12.014;2024-02-21T11:32:18;98245.24;;;19.63;46.93
52653;BME280;39353;42.864;12.014;2024-02-21T11:35:00;98240.20;;;19.61;46.69
52653;BME280;39353;42.864;12.014;2024-02-21T11:37:34;98239.02;;;19.61;46.59
52653;BME280;39353;42.864;12.014;2024-02-21T11:40:09;98236.88;;;19.61;46.65
52653;BME280;39353;42.864;12.014;2024-02-21T11:42:40;98235.67;;;19.60;46.61
52653;BME280;39353;42.864;12.014;2024-02-21T11:45:14;98236.52;;;19.61;46.54
52653;BME280;39353;42.864;12.014;2024-02-21T11:58:19;98223.89;;;19.75;47.13
52653;BME280;39353;42.864;12.014;2024-02-21T12:00:50;98215.17;;;19.81;47.25
52653;BME280;39353;42.864;12.014;2024-02-21T12:03:21;98208.67;;;19.85;47.64
52653;BME280;39353;42.864;12.014;2024-02-21T12:05:54;98206.45;;;19.90;48.41
52653;BME280;39353;42.864;12.014;2024-02-21T12:08:26;98203.70;;;19.93;48.82
52653;BME280;39353;42.864;12.014;2024-02-21T12:10:59;98200.70;;;19.95;49.23
52653;BME280;39353;42.864;12.014;2024-02-21T12:13:30;98196.23;;;19.97;49.63
52653;BME280;39353;42.864;12.014;2024-02-21T12:16:01;98192.63;;;20.00;50.41
52653;BME280;39353;42.864;12.014;2024-02-21T12:18:32;98187.67;;;20.01;50.91
52653;BME280;39353;42.864;12.014;2024-02-21T12:21:06;98187.06;;;20.04;50.69
52653;BME280;39353;42.864;12.014;2024-02-21T12:23:39;98186.14;;;20.05;50.91
52653;BME280;39353;42.864;12.014;2024-02-21T12:26:10;98180.45;;;20.05;51.01
52653;BME280;39353;42.864;12.014;2024-02-21T12:28:42;98178.60;;;20.05;51.46
52653;BME280;39353;42.864;12.014;2024-02-21T12:31:13;98176.30;;;20.06;51.66
52653;BME280;39353;42.864;12.014;2024-02-21T12:33:46;98169.43;;;20.07;51.49
52653;BME280;39353;42.864;12.014;2024-02-21T12:36:18;98170.58;;;20.08;51.54
52653;BME280;39353;42.864;12.014;2024-02-21T12:38:49;98170.45;;;20.08;51.63
52653;BME280;39353;42.864;12.014;2024-02-21T12:41:21;98168.21;;;20.07;51.48
52653;BME280;39353;42.864;12.014;2024-02-21T12:43:52;98163.21;;;20.05;51.38
52653;BME280;39353;42.864;12.014;2024-02-21T12:46:23;98156.89;;;20.03;50.74
52653;BME280;39353;42.864;12.014;2024-02-21T12:48:54;98156.79;;;20.01;50.42
52653;BME280;39353;42.864;12.014;2024-02-21T12:51:26;98152.17;;;20.01;50.15
52653;BME280;39353;42.864;12.014;2024-02-21T12:53:58;98157.88;;;20.01;49.61
52653;BME280;39353;42.864;12.014;2024-02-21T12:56:33;98157.64;;;20.02;49.09
52653;BME280;39353;42.864;12.014;2024-02-21T12:59:05;98152.85;;;19.97;48.98
52653;BME280;39353;42.864;12.014;2024-02-21T13:01:38;98144.87;;;19.93;48.88
52653;BME280;39353;42.864;12.014;2024-02-21T13:04:09;98143.23;;;19.90;49.02
52653;BME280;39353;42.864;12.014;2024-02-21T13:06:42;98134.09;;;19.89;48.70
52653;BME280;39353;42.864;12.014;2024-02-21T13:09:14;98130.44;;;19.89;48.35
52653;BME280;39353;42.864;12.014;2024-02-21T13:11:46;98125.70;;;19.88;48.05
52653;BME280;39353;42.864;12.014;2024-02-21T13:14:19;98119.46;;;19.87;47.75
52653;BME280;39353;42.864;12.014;2024-02-21T13:16:52;98120.30;;;19.86;47.69
52653;BME280;39353;42.864;12.014;2024-02-21T13:19:22;98117.30;;;19.87;47.50
52653;BME280;39353;42.864;12.014;2024-02-21T13:21:53;98120.92;;;19.89;47.71
52653;BME280;39353;42.864;12.014;2024-02-21T13:24:24;98120.89;;;19.90;47.17
52653;BME280;39353;42.864;12.014;2024-02-21T13:26:55;98119.09;;;19.91;47.35
52653;BME280;39353;42.864;12.014;2024-02-21T13:29:27;98111.45;;;19.94;47.36